createdAt,value
2019-05-05T00:01:34.543Z,1.25
2019-05-05T00:05:39.592Z,3.17
2019-05-05T00:09:45.015Z,0.98
2019-05-05T00:13:55.164Z,1.00
2019-05-05T00:17:58.685Z,1.10
2019-05-05T00:22:04.493Z,0.93
2019-05-05T00:26:08.057Z,0.80
2019-05-05T00:30:11.844Z,0.90
2019-05-05T00:34:15.613Z,1.02
2019-05-05T00:38:19.581Z,1.15
2019-05-05T00:42:24.721Z,0.90
2019-05-05T00:46:46.420Z,0.80
2019-05-05T00:50:51.824Z,1.07
2019-05-05T00:54:55.723Z,1.17
2019-05-05T00:59:07.074Z,0.93
2019-05-05T01:03:11.525Z,0.90
2019-05-05T01:07:15.418Z,1.52
2019-05-05T01:11:20.306Z,1.05
2019-05-05T01:15:25.477Z,1.22
2019-05-05T01:19:29.210Z,1.37
2019-05-05T01:23:34.798Z,1.20
2019-05-05T01:27:38.423Z,1.00
2019-05-05T01:31:41.916Z,1.50
2019-05-05T01:35:45.365Z,1.32
2019-05-05T01:39:54.210Z,1.00
2019-05-05T01:43:57.848Z,1.30
2019-05-05T01:48:01.302Z,0.62
2019-05-05T01:52:04.725Z,1.40
2019-05-05T01:56:08.331Z,1.10
2019-05-05T02:00:12.252Z,1.35
2019-05-05T02:04:15.715Z,1.10
2019-05-05T02:08:20.379Z,1.00
2019-05-05T02:12:24.692Z,0.70
2019-05-05T02:16:28.174Z,1.57
2019-05-05T02:20:44.919Z,1.20
2019-05-05T02:29:54.870Z,0.90
2019-05-05T02:33:58.446Z,1.40
2019-05-05T02:38:01.951Z,1.15
2019-05-05T02:42:05.937Z,1.20
2019-05-05T02:46:25.441Z,1.00
2019-05-05T02:50:48.409Z,1.05
2019-05-05T02:54:37.550Z,1.32
2019-05-05T02:58:41.919Z,1.32
2019-05-05T03:02:45.717Z,1.20
2019-05-05T03:06:54.026Z,1.37
2019-05-05T03:11:00.454Z,0.84
2019-05-05T03:15:05.003Z,1.10
2019-05-05T03:19:09.572Z,1.24
2019-05-05T03:23:13.708Z,1.30
2019-05-05T03:27:17.360Z,1.30
2019-05-05T03:31:21.470Z,0.75
2019-05-05T03:35:25.902Z,1.17
2019-05-05T03:39:30.987Z,1.05
2019-05-05T03:43:36.222Z,1.17
2019-05-05T03:47:40.951Z,1.17
2019-05-05T03:51:44.751Z,1.57
2019-05-05T03:55:48.340Z,0.80
2019-05-05T03:59:51.859Z,1.27
2019-05-05T04:03:57.187Z,0.95
2019-05-05T04:08:00.863Z,1.82
2019-05-05T04:12:06.045Z,1.57
2019-05-05T04:16:23.738Z,1.45
2019-05-05T04:20:29.042Z,1.15
2019-05-05T04:24:34.196Z,1.07
2019-05-05T04:28:38.572Z,1.30
2019-05-05T04:32:43.954Z,1.67
2019-05-05T04:36:47.341Z,1.40
2019-05-05T04:40:50.922Z,1.55
2019-05-05T04:44:54.721Z,1.47
2019-05-05T04:49:16.234Z,1.30
2019-05-05T04:53:21.331Z,1.27
2019-05-05T04:57:25.106Z,1.77
2019-05-05T05:01:28.507Z,1.40
2019-05-05T05:05:36.276Z,1.50
2019-05-05T05:09:39.719Z,2.00
2019-05-05T05:13:44.029Z,1.82
2019-05-05T05:17:49.190Z,1.57
2019-05-05T05:22:01.209Z,1.67
2019-05-05T05:25:57.822Z,1.57
2019-05-05T05:30:01.314Z,1.57
2019-05-05T05:34:04.720Z,1.55
2019-05-05T05:38:08.160Z,1.77
2019-05-05T05:42:13.624Z,1.80
2019-05-05T05:46:26.908Z,1.55
2019-05-05T05:50:38.243Z,1.72
2019-05-05T06:02:47.759Z,1.95
2019-05-05T06:06:51.256Z,2.05
2019-05-05T06:10:54.875Z,2.33
2019-05-05T06:14:58.411Z,2.10
2019-05-05T06:19:03.691Z,2.25
2019-05-05T06:23:07.009Z,1.80
2019-05-05T06:27:10.746Z,1.85
2019-05-05T06:31:14.828Z,2.10
2019-05-05T06:35:18.677Z,2.15
2019-05-05T06:39:24.037Z,1.47
2019-05-05T06:43:34.955Z,1.50
2019-05-05T06:47:39.750Z,1.85
2019-05-05T06:51:44.662Z,2.02
2019-05-05T06:55:48.054Z,1.95
2019-05-05T06:59:51.805Z,1.70
2019-05-05T07:03:55.524Z,1.90
2019-05-05T07:08:01.075Z,1.50
2019-05-05T07:12:04.775Z,1.20
2019-05-05T07:16:08.187Z,1.17
2019-05-05T07:20:13.569Z,1.67
2019-05-05T07:24:17.374Z,1.47
2019-05-05T07:28:21.107Z,1.15
2019-05-05T07:32:24.710Z,1.00
2019-05-05T07:36:35.918Z,0.98
2019-05-05T07:40:39.365Z,1.12
2019-05-05T07:44:44.093Z,0.80
2019-05-05T07:48:47.931Z,1.12
2019-05-05T07:52:51.397Z,1.07
2019-05-05T07:56:54.839Z,1.00
2019-05-05T08:00:58.606Z,0.82
2019-05-05T08:05:02.043Z,1.00
2019-05-05T08:09:07.218Z,0.98
2019-05-05T08:13:11.082Z,1.02
2019-05-05T08:17:20.814Z,0.40
2019-05-05T08:21:24.249Z,0.60
2019-05-05T08:25:39.305Z,0.80
2019-05-05T08:29:36.675Z,0.93
2019-05-05T08:33:40.140Z,0.90
2019-05-05T08:37:43.892Z,0.90
2019-05-05T08:41:48.249Z,0.65
2019-05-05T08:45:51.719Z,0.60
2019-05-05T08:49:55.220Z,0.53
2019-05-05T08:53:58.660Z,0.72
2019-05-05T08:58:04.579Z,0.70
2019-05-05T09:02:08.515Z,0.65
2019-05-05T09:06:13.769Z,0.35
2019-05-05T09:10:18.020Z,0.53
2019-05-05T09:14:21.487Z,0.60
2019-05-05T09:18:24.952Z,0.68
2019-05-05T09:22:28.467Z,0.45
2019-05-05T09:26:48.368Z,0.50
2019-05-05T09:30:53.668Z,0.62
2019-05-05T09:34:57.328Z,0.70
2019-05-05T09:39:01.253Z,0.62
2019-05-05T09:43:06.807Z,0.70
2019-05-05T09:47:10.270Z,0.70
2019-05-05T09:51:13.763Z,0.80
2019-05-05T09:55:17.229Z,0.75
2019-05-05T09:59:20.991Z,0.50
2019-05-05T10:03:24.589Z,0.40
2019-05-05T10:07:28.250Z,0.50
2019-05-05T10:11:31.704Z,0.88
2019-05-05T10:15:35.518Z,0.68
2019-05-05T10:19:38.939Z,0.40
2019-05-05T10:23:44.010Z,0.40
2019-05-05T10:27:47.867Z,0.70
2019-05-05T10:31:51.265Z,0.53
2019-05-05T10:35:55.258Z,0.28
2019-05-05T10:39:59.446Z,0.28
2019-05-05T10:44:03.662Z,0.57
2019-05-05T10:48:07.252Z,0.40
2019-05-05T10:52:10.990Z,0.20
2019-05-05T10:56:14.756Z,0.50
2019-05-05T11:00:21.223Z,0.33
2019-05-05T11:04:24.657Z,0.62
2019-05-05T11:08:30.711Z,0.30
2019-05-05T11:12:34.222Z,0.35
2019-05-05T11:16:38.190Z,0.30
2019-05-05T11:20:41.624Z,0.28
2019-05-05T11:24:57.268Z,0.75
2019-05-05T11:28:50.551Z,1.07
2019-05-05T11:32:55.639Z,0.40
2019-05-05T11:37:00.897Z,0.60
2019-05-05T11:41:04.988Z,0.42
2019-05-05T11:45:08.644Z,0.65
2019-05-05T11:49:13.920Z,0.60
2019-05-05T11:53:20.148Z,0.62
2019-05-05T11:57:24.030Z,0.60
2019-05-05T12:01:27.504Z,0.85
2019-05-05T12:05:31.281Z,0.68
2019-05-05T12:09:36.801Z,1.65
2019-05-05T12:13:40.630Z,1.10
2019-05-05T12:17:45.265Z,0.55
2019-05-05T12:21:48.699Z,0.50
2019-05-05T12:26:04.688Z,0.78
2019-05-05T12:30:08.998Z,0.45
2019-05-05T12:34:12.435Z,0.45
2019-05-05T12:38:15.882Z,1.07
2019-05-05T12:42:21.553Z,0.80
2019-05-05T12:46:38.388Z,0.85
2019-05-05T12:50:41.824Z,0.82
2019-05-05T12:54:45.300Z,0.62
2019-05-05T12:58:48.746Z,1.02
2019-05-05T13:02:53.841Z,0.40
2019-05-05T13:06:57.687Z,0.50
2019-05-05T13:11:01.471Z,1.22
2019-05-05T13:15:06.758Z,1.07
2019-05-05T13:19:20.820Z,0.70
2019-05-05T13:23:28.879Z,1.10
2019-05-05T13:27:34.365Z,1.55
2019-05-05T13:31:37.858Z,1.42
2019-05-05T13:35:41.298Z,1.00
2019-05-05T13:39:44.856Z,1.42
2019-05-05T13:43:48.595Z,1.50
2019-05-05T13:47:54.041Z,1.00
2019-05-05T13:51:58.990Z,1.10
2019-05-05T13:56:12.022Z,1.62
2019-05-05T14:00:15.138Z,1.47
2019-05-05T14:04:19.051Z,1.40
2019-05-05T14:08:23.770Z,1.92
2019-05-05T14:12:27.600Z,1.45
2019-05-05T14:16:31.304Z,2.33
2019-05-05T14:20:35.160Z,1.70
2019-05-05T14:24:40.238Z,2.37
2019-05-05T14:28:43.993Z,3.35
2019-05-05T14:32:47.487Z,2.20
2019-05-05T14:37:11.163Z,1.92
2019-05-05T14:41:14.196Z,2.00
2019-05-05T14:45:17.972Z,1.90
2019-05-05T14:49:21.524Z,1.60
2019-05-05T14:53:25.394Z,1.82
2019-05-05T14:57:28.852Z,1.95
2019-05-05T15:01:34.271Z,1.95
2019-05-05T15:05:39.319Z,1.85
2019-05-05T15:09:50.338Z,1.60
2019-05-05T15:13:55.514Z,1.35
2019-05-05T15:17:59.153Z,3.08
2019-05-05T15:22:10.044Z,1.95
2019-05-05T15:26:13.465Z,1.32
2019-05-05T15:30:17.424Z,1.37
2019-05-05T15:34:21.182Z,1.60
2019-05-05T15:38:24.655Z,2.02
2019-05-05T15:42:28.241Z,2.83
2019-05-05T15:46:33.704Z,1.75
2019-05-05T15:50:37.328Z,1.22
2019-05-05T15:54:40.886Z,1.70
2019-05-05T15:58:44.844Z,1.17
2019-05-05T16:02:50.301Z,1.87
2019-05-05T16:06:55.636Z,2.05
2019-05-05T16:11:00.205Z,1.72
2019-05-05T16:15:13.717Z,1.42
2019-05-05T16:19:18.740Z,1.45
2019-05-05T16:23:29.745Z,1.27
2019-05-05T16:27:33.542Z,1.77
2019-05-05T16:31:37.114Z,1.27
2019-05-05T16:35:40.911Z,2.85
2019-05-05T16:39:44.343Z,2.30
2019-05-05T16:43:48.093Z,1.62
2019-05-05T16:47:54.402Z,1.30
2019-05-05T16:52:00.846Z,2.00
2019-05-05T16:56:10.639Z,2.22
2019-05-05T17:00:15.054Z,1.37
2019-05-05T17:04:19.861Z,2.08
2019-05-05T17:08:24.522Z,1.90
2019-05-05T17:12:28.202Z,1.65
2019-05-05T17:16:39.200Z,1.75
2019-05-05T17:20:44.273Z,2.75
2019-05-05T17:24:47.797Z,1.90
2019-05-05T17:28:51.243Z,2.47
2019-05-05T17:32:54.729Z,2.00
2019-05-05T17:36:58.547Z,5.15
2019-05-05T17:41:03.793Z,17.05
2019-05-05T17:45:26.155Z,27.58
2019-05-05T17:49:34.736Z,8.03
2019-05-05T17:53:54.640Z,5.08
2019-05-05T17:58:02.106Z,3.47
2019-05-05T18:02:04.900Z,2.50
2019-05-05T18:06:23.625Z,3.00
2019-05-05T18:10:31.392Z,2.58
2019-05-05T18:14:36.996Z,3.60
2019-05-05T18:18:40.418Z,4.92
2019-05-05T18:22:43.935Z,4.55
2019-05-05T18:26:47.690Z,3.25
2019-05-05T18:30:53.933Z,2.27
2019-05-05T18:34:57.845Z,1.98
2019-05-05T18:39:01.274Z,2.65
2019-05-05T18:43:08.233Z,2.27
2019-05-05T18:47:15.661Z,2.62
2019-05-05T18:51:17.319Z,2.05
2019-05-05T18:55:20.831Z,2.30
2019-05-05T18:59:24.340Z,2.05
2019-05-05T19:03:38.545Z,1.92
2019-05-05T19:07:55.745Z,1.85
2019-05-05T19:11:58.072Z,2.17
2019-05-05T19:16:03.534Z,2.90
2019-05-05T19:20:14.562Z,2.70
2019-05-05T19:24:17.879Z,1.90
2019-05-05T19:28:23.370Z,1.95
2019-05-05T19:32:26.547Z,2.72
2019-05-05T19:36:30.113Z,1.75
2019-05-05T19:40:34.064Z,1.90
2019-05-05T19:44:38.122Z,1.87
2019-05-05T19:48:41.600Z,1.85
2019-05-05T19:52:46.607Z,2.20
2019-05-05T19:57:15.927Z,2.17
2019-05-05T20:01:38.071Z,2.17
2019-05-05T20:09:45.973Z,1.70
2019-05-05T20:13:49.436Z,2.02
2019-05-05T20:17:53.918Z,2.17
2019-05-05T20:21:57.583Z,1.90
2019-05-05T20:26:03.791Z,2.47
2019-05-05T20:30:08.440Z,2.87
2019-05-05T20:34:13.803Z,2.27
2019-05-05T20:38:30.588Z,1.85
2019-05-05T20:42:34.951Z,1.67
2019-05-05T20:46:38.862Z,1.80
2019-05-05T20:50:43.857Z,1.75
2019-05-05T20:54:47.356Z,2.20
2019-05-05T20:58:50.919Z,2.30
2019-05-05T21:02:55.507Z,2.37
2019-05-05T21:06:59.206Z,1.72
2019-05-05T21:11:04.382Z,2.47
2019-05-05T21:15:08.787Z,2.10
2019-05-05T21:19:14.044Z,3.77
2019-05-05T21:23:19.265Z,2.12
2019-05-05T21:27:24.488Z,2.74
2019-05-05T21:31:28.001Z,1.62
2019-05-05T21:35:31.692Z,1.80
2019-05-05T21:39:35.479Z,1.57
2019-05-05T21:43:39.296Z,2.87
2019-05-05T21:47:44.243Z,2.17
2019-05-05T21:51:49.584Z,1.95
2019-05-05T21:55:57.436Z,1.40
2019-05-05T22:00:01.121Z,2.20
2019-05-05T22:04:05.436Z,2.05
2019-05-05T22:08:08.864Z,1.87
2019-05-05T22:12:13.527Z,2.00
2019-05-05T22:16:17.066Z,1.85
2019-05-05T22:20:23.412Z,1.72
2019-05-05T22:24:26.919Z,2.00
2019-05-05T22:28:30.378Z,2.02
2019-05-05T22:32:34.420Z,2.20
2019-05-05T22:36:38.176Z,1.60
2019-05-05T22:40:43.923Z,1.70
2019-05-05T22:44:47.157Z,2.00
2019-05-05T22:48:50.839Z,2.27
2019-05-05T22:52:54.617Z,2.67
2019-05-05T22:56:58.237Z,2.80
2019-05-05T23:01:03.991Z,2.35
2019-05-05T23:05:09.404Z,1.98
2019-05-05T23:09:14.741Z,2.20
2019-05-05T23:13:19.333Z,2.62
2019-05-05T23:17:26.385Z,2.27
2019-05-05T23:21:31.205Z,1.70
2019-05-05T23:25:39.194Z,2.25
2019-05-05T23:29:44.629Z,2.22
2019-05-05T23:33:48.596Z,2.08
2019-05-05T23:37:52.056Z,2.52
2019-05-05T23:41:55.504Z,2.70
2019-05-05T23:45:58.957Z,2.75
2019-05-05T23:50:04.390Z,2.70
2019-05-05T23:54:07.591Z,2.12
2019-05-05T23:58:11.039Z,3.02
